EmailTwitter


Surface observations / Quebec / CYSC

Regions: Quebec | Canada | USA | Europe | France | UK | Elsewhere
Station
Display
Info & Location for CYSC | Help decoding METAR

Weather Conditions observed on 2018/10/16 at 19:00 UTC at SHERBROOKE, QB (CYSC)

Sky conditions: partly cloudy.

Temperature: 5.0 Celsius.

Dewpoint: -2.0 Celsius.

Relative Humidity: 61%

Windchill Factor: 0.

Windchill Factor (Gusts): -1.

Winds: West at 30 km/h or 16 knots.

Gust: 46 km/h or 25 knots.

Mean Sea level Pressure: 101.41 kilopascals.

Altimeter Setting (QNH): 101.32 kilopascals or 29.92 inches of mercury.

Horizontal visibility: 9.00 statute miles or 14.40 kilometers.

Height of the Ceiling: 1189 metres ( 3900 feet ).

Coded METAR:

CYSC 161900Z AUTO 26016G25KT 9SM BKN039 05/M02 A2992 RMK SLP141=